Meteo Giornale » Osservazioni meteo Italia » Trieste

ore: 23:55 - Osservazioni Meteo Trieste
Lat. 45° 39' N Lon. 13° 45' E Alt. 8 metri s.l.m.

sereno Europe/Rome

6 °C

Sereno

Temp. 24 Ore

3 °C

12 °C

Est

11.1 Km/h

Dew point -3 °C

Umidità 52 %

Visibilità  10 Km

Il sole sorge alle ore 07:34

Il sole tramonta alle ore 16:22

Data e Ora Cielo e Fenomeni T °C DP °C Um. % Pres. hPa Vis. km Vento km/h
Ieri h: 23:55 sereno Sereno 6 -3 52 1018 10 E 11.1
Ieri h: 22:55 sereno Sereno 6 -0 65 1018 10 E/NE 9.3
Ieri h: 21:55 sereno Sereno 7 -1 56 1018 10 N 5.5
Ieri h: 20:55 sereno Sereno 7 -2 52 1018 10 N 5.5
Ieri h: 19:55 sereno Sereno 6 -6 41 1018 10 N 5.5
Ieri h: 18:55 sereno Sereno 4 -5 51 1018 10 N 1.8
Ieri h: 17:55 sereno Sereno 5 -5 48 1018 10 N 5.5
Ieri h: 16:55 sereno Sereno 6 -5 45 1018 10 N 3.7
Ieri h: 15:55 sereno Sereno 9 -5 36 1018 10 N 0
Ieri h: 14:55 sereno Sereno 11 -4 34 1018 10 N 0
Ieri h: 13:55 sereno Sereno 11 -2 40 1018 10 N 0
Ieri h: 12:55 sereno Sereno 11 -2 40 1019 10 N 0
Ieri h: 11:55 sereno Sereno 12 -2 37 1019 10 N 0
Ieri h: 10:55 sereno Sereno 9 -0 53 1019 10 N 0
Ieri h: 09:55 sereno Sereno 6 -2 56 1019 10 N 0
Ieri h: 08:55 sereno Sereno 4 -4 55 1019 10 N 3.7
Ieri h: 06:55 sereno Sereno 3 -4 59 1018 10 N 5.5
Ieri h: 05:55 sereno Sereno 3 -4 59 1018 10 N 3.7
Ieri h: 04:55 sereno Sereno 3 -4 59 1018 10 N 1.8
Ieri h: 03:55 sereno Sereno 4 -3 60 1018 10 N 5.5
Ieri h: 01:55 sereno Sereno 4 -3 60 1018 10 N 1.8